createdAt,value
2017-05-07T00:01:08.752Z,84.010
2017-05-07T00:04:02.961Z,84.215
2017-05-07T00:06:57.119Z,84.076
2017-05-07T00:09:51.294Z,83.916
2017-05-07T00:12:47.571Z,84.184
2017-05-07T00:15:39.604Z,84.018
2017-05-07T00:18:33.826Z,84.289
2017-05-07T00:21:28.075Z,84.354
2017-05-07T00:24:22.243Z,84.367
2017-05-07T00:27:16.244Z,84.549
2017-05-07T00:30:10.395Z,84.761
2017-05-07T00:33:04.415Z,85.446
2017-05-07T00:35:58.527Z,85.206
2017-05-07T00:38:53.298Z,85.527
2017-05-07T00:41:46.733Z,85.667
2017-05-07T00:44:40.943Z,85.612
2017-05-07T00:47:35.086Z,85.562
2017-05-07T00:50:29.295Z,86.020
2017-05-07T00:53:23.442Z,85.964
2017-05-07T00:56:17.563Z,86.354
2017-05-07T00:59:11.637Z,86.282
2017-05-07T01:02:05.667Z,86.317
2017-05-07T01:04:59.658Z,86.130
2017-05-07T01:07:53.731Z,85.921
2017-05-07T01:10:47.838Z,86.255
2017-05-07T01:13:41.952Z,86.214
2017-05-07T01:16:36.077Z,86.074
2017-05-07T01:19:30.230Z,86.176
2017-05-07T01:22:26.105Z,85.938
2017-05-07T01:25:18.562Z,85.962
2017-05-07T01:28:12.768Z,86.118
2017-05-07T01:31:06.908Z,85.928
2017-05-07T01:34:01.217Z,85.858
2017-05-07T01:36:57.147Z,85.862
2017-05-07T01:39:50.368Z,85.991
2017-05-07T01:42:43.749Z,85.829
2017-05-07T01:45:37.835Z,85.921
2017-05-07T01:48:31.986Z,86.051
2017-05-07T01:51:26.052Z,85.987
2017-05-07T01:54:20.213Z,85.831
2017-05-07T01:57:14.495Z,85.601
2017-05-07T02:00:08.804Z,85.861
2017-05-07T02:03:04.610Z,86.040
2017-05-07T02:05:56.964Z,86.030
2017-05-07T02:08:52.800Z,86.213
2017-05-07T02:11:45.206Z,86.344
2017-05-07T02:14:39.309Z,86.447
2017-05-07T02:17:33.347Z,86.148
2017-05-07T02:20:27.354Z,86.161
2017-05-07T02:23:21.341Z,86.142
2017-05-07T02:26:15.530Z,86.173
2017-05-07T02:29:09.586Z,86.285
2017-05-07T02:32:03.649Z,86.440
2017-05-07T02:34:57.755Z,86.266
2017-05-07T02:37:51.848Z,86.450
2017-05-07T02:40:45.876Z,86.326
2017-05-07T02:43:39.990Z,86.415
2017-05-07T02:46:35.671Z,86.576
2017-05-07T02:49:28.113Z,86.545
2017-05-07T02:52:22.226Z,86.481
2017-05-07T02:55:17.998Z,86.585
2017-05-07T02:58:10.394Z,86.678
2017-05-07T03:01:04.477Z,86.862
2017-05-07T03:03:58.543Z,86.841
2017-05-07T03:06:52.610Z,86.817
2017-05-07T03:09:46.869Z,86.808
2017-05-07T03:12:40.950Z,86.747
2017-05-07T03:15:35.045Z,86.869
2017-05-07T03:18:29.225Z,86.894
2017-05-07T03:21:23.189Z,86.840
2017-05-07T03:24:17.321Z,86.746
2017-05-07T03:27:11.420Z,86.588
2017-05-07T03:30:07.431Z,86.687
2017-05-07T03:32:59.783Z,86.832
2017-05-07T03:35:53.842Z,86.735
2017-05-07T03:38:47.948Z,86.887
2017-05-07T03:41:42.029Z,87.125
2017-05-07T03:44:36.140Z,87.445
2017-05-07T03:47:30.214Z,87.404
2017-05-07T03:50:24.296Z,87.529
2017-05-07T03:53:20.156Z,87.656
2017-05-07T03:56:12.563Z,87.625
2017-05-07T03:59:06.647Z,87.428
2017-05-07T04:02:00.678Z,87.516
2017-05-07T04:04:56.644Z,87.465
2017-05-07T04:07:50.775Z,87.455
2017-05-07T04:10:43.153Z,87.498
2017-05-07T04:13:37.208Z,87.613
2017-05-07T04:16:31.303Z,87.553
2017-05-07T04:19:25.276Z,87.520
2017-05-07T04:22:19.231Z,87.260
2017-05-07T04:25:13.280Z,87.377
2017-05-07T04:28:07.282Z,87.474
2017-05-07T04:31:03.022Z,87.596
2017-05-07T04:33:55.457Z,87.596
2017-05-07T04:36:49.620Z,87.567
2017-05-07T04:39:43.793Z,87.751
2017-05-07T04:42:37.770Z,87.914
2017-05-07T04:45:31.879Z,87.964
2017-05-07T04:48:25.944Z,87.881
2017-05-07T04:51:20.082Z,87.989
2017-05-07T04:54:14.481Z,87.813
2017-05-07T04:57:08.616Z,87.678
2017-05-07T05:00:02.739Z,87.846
2017-05-07T05:02:56.654Z,87.440
2017-05-07T05:05:50.778Z,87.092
2017-05-07T05:08:44.870Z,86.892
2017-05-07T05:11:38.820Z,86.636
2017-05-07T05:14:32.941Z,86.482
2017-05-07T05:17:28.736Z,86.305
2017-05-07T05:20:21.211Z,86.305
2017-05-07T05:23:15.348Z,86.042
2017-05-07T05:26:09.514Z,85.758
2017-05-07T05:29:03.667Z,85.406
2017-05-07T05:31:57.882Z,85.347
2017-05-07T05:34:51.973Z,85.449
2017-05-07T05:37:46.173Z,85.265
2017-05-07T05:40:40.280Z,85.200
2017-05-07T05:43:34.641Z,85.202
2017-05-07T05:46:28.788Z,84.649
2017-05-07T05:49:22.929Z,84.521
2017-05-07T05:52:17.090Z,84.366
2017-05-07T05:55:11.349Z,84.452
2017-05-07T05:58:05.533Z,83.960
2017-05-07T06:00:59.750Z,83.895
2017-05-07T06:03:55.490Z,83.997
2017-05-07T06:06:48.030Z,83.831
2017-05-07T06:09:42.116Z,83.803
2017-05-07T06:12:36.247Z,83.798
2017-05-07T06:15:30.412Z,83.567
2017-05-07T06:18:26.302Z,83.746
2017-05-07T06:21:18.688Z,83.901
2017-05-07T06:24:12.920Z,84.291
2017-05-07T06:27:07.190Z,84.467
2017-05-07T06:30:01.386Z,84.318
2017-05-07T06:32:55.596Z,84.184
2017-05-07T06:35:49.799Z,84.437
2017-05-07T06:38:45.785Z,84.525
2017-05-07T06:41:38.181Z,85.282
2017-05-07T06:44:32.349Z,85.440
2017-05-07T06:47:26.571Z,85.181
2017-05-07T06:50:20.674Z,84.638
2017-05-07T06:53:14.843Z,84.405
2017-05-07T06:56:08.967Z,84.810
2017-05-07T06:59:03.222Z,84.703
2017-05-07T07:01:59.131Z,84.389
2017-05-07T07:04:51.420Z,83.915
2017-05-07T07:07:45.762Z,83.997
2017-05-07T07:10:41.772Z,84.197
2017-05-07T07:13:35.858Z,83.471
2017-05-07T07:16:28.387Z,83.237
2017-05-07T07:19:22.721Z,82.849
2017-05-07T07:22:16.831Z,82.813
2017-05-07T07:25:11.090Z,82.471
2017-05-07T07:28:05.358Z,81.696
2017-05-07T07:31:01.364Z,81.639
2017-05-07T07:33:53.678Z,81.687
2017-05-07T07:36:47.979Z,79.741
2017-05-07T07:39:42.445Z,75.121
2017-05-07T07:42:36.937Z,72.948
2017-05-07T07:45:31.377Z,71.235
2017-05-07T07:48:25.828Z,70.827
2017-05-07T07:51:20.390Z,70.990
2017-05-07T07:54:14.726Z,70.606
2017-05-07T07:57:09.084Z,72.436
2017-05-07T08:00:03.450Z,70.966
2017-05-07T08:02:59.679Z,69.961
2017-05-07T08:05:52.339Z,70.194
2017-05-07T08:08:46.766Z,69.268
2017-05-07T08:11:41.208Z,69.898
2017-05-07T08:14:35.673Z,69.411
2017-05-07T08:17:30.292Z,69.281
2017-05-07T08:20:26.426Z,68.714
2017-05-07T08:23:19.141Z,67.078
2017-05-07T08:26:13.553Z,67.570
2017-05-07T08:29:07.928Z,68.271
2017-05-07T08:32:02.209Z,66.037
2017-05-07T08:34:56.485Z,67.280
2017-05-07T08:37:50.933Z,67.371
2017-05-07T08:40:45.323Z,65.150
2017-05-07T08:43:39.819Z,64.664
2017-05-07T08:46:34.278Z,63.018
2017-05-07T08:49:28.694Z,60.810
2017-05-07T08:52:23.186Z,61.311
2017-05-07T08:55:17.644Z,57.847
2017-05-07T08:58:12.069Z,60.351
2017-05-07T09:01:06.616Z,61.340
2017-05-07T09:04:00.993Z,61.533
2017-05-07T09:06:55.390Z,60.289
2017-05-07T09:09:49.755Z,62.183
2017-05-07T09:12:44.105Z,61.653
2017-05-07T09:15:38.459Z,61.372
2017-05-07T09:18:32.830Z,61.449
2017-05-07T09:21:27.175Z,62.762
2017-05-07T09:24:21.473Z,64.228
2017-05-07T09:27:15.904Z,62.406
2017-05-07T09:30:10.346Z,61.672
2017-05-07T09:33:04.866Z,58.175
2017-05-07T09:35:59.401Z,59.067
2017-05-07T09:38:53.881Z,58.012
2017-05-07T09:41:48.511Z,58.770
2017-05-07T09:44:44.851Z,57.286
2017-05-07T09:47:37.818Z,55.832
2017-05-07T09:50:32.462Z,57.083
2017-05-07T09:53:27.155Z,54.043
2017-05-07T09:56:21.937Z,49.327
2017-05-07T09:59:16.593Z,46.771
2017-05-07T10:02:11.624Z,39.825
2017-05-07T10:05:06.962Z,33.191
2017-05-07T10:08:02.385Z,28.637
2017-05-07T10:10:57.747Z,25.842
2017-05-07T10:13:53.213Z,25.270
2017-05-07T10:16:48.478Z,24.586
2017-05-07T10:19:43.982Z,22.760
2017-05-07T10:22:41.276Z,23.151
2017-05-07T10:25:34.799Z,26.161
2017-05-07T10:28:30.019Z,31.154
2017-05-07T10:31:25.391Z,29.384
2017-05-07T10:34:20.491Z,33.258
2017-05-07T10:37:15.596Z,34.109
2017-05-07T10:40:10.623Z,37.025
2017-05-07T10:43:05.620Z,37.396
2017-05-07T10:46:00.804Z,36.839
2017-05-07T10:48:55.796Z,38.299
2017-05-07T10:51:50.823Z,39.664
2017-05-07T10:54:45.897Z,38.219
2017-05-07T10:57:40.972Z,38.773
2017-05-07T11:00:36.013Z,39.144
2017-05-07T11:03:31.067Z,38.557
2017-05-07T11:06:26.245Z,39.762
2017-05-07T11:09:21.311Z,39.534
2017-05-07T11:12:16.268Z,40.978
2017-05-07T11:15:11.221Z,43.382
2017-05-07T11:18:06.225Z,43.182
2017-05-07T11:21:01.329Z,41.926
2017-05-07T11:23:56.292Z,43.252
2017-05-07T11:26:51.176Z,44.179
2017-05-07T11:29:46.211Z,41.880
2017-05-07T11:32:41.142Z,44.357
2017-05-07T11:35:36.086Z,45.209
2017-05-07T11:38:30.978Z,43.638
2017-05-07T11:41:25.864Z,46.085
2017-05-07T11:44:20.733Z,44.664
2017-05-07T11:47:15.692Z,46.517
2017-05-07T11:50:10.587Z,46.576
2017-05-07T11:53:05.538Z,47.673
2017-05-07T11:56:00.644Z,45.315
2017-05-07T11:58:55.545Z,46.507
2017-05-07T12:01:50.544Z,47.183
2017-05-07T12:04:45.515Z,47.427
2017-05-07T12:07:40.509Z,46.966
2017-05-07T12:10:35.437Z,46.949
2017-05-07T12:13:30.481Z,48.550
2017-05-07T12:16:25.447Z,46.751
2017-05-07T12:19:20.223Z,46.513
2017-05-07T12:22:15.015Z,46.866
2017-05-07T12:25:09.914Z,48.459
2017-05-07T12:28:04.759Z,45.542
2017-05-07T12:30:59.450Z,47.267
2017-05-07T12:33:54.355Z,46.807
2017-05-07T12:36:49.140Z,45.699
2017-05-07T12:39:44.059Z,45.427
2017-05-07T12:42:38.873Z,44.797
2017-05-07T12:45:34.242Z,44.559
2017-05-07T12:48:29.076Z,45.095
2017-05-07T12:51:23.905Z,44.567
2017-05-07T12:54:19.107Z,45.285
2017-05-07T12:57:13.878Z,48.350
2017-05-07T13:00:08.723Z,46.614
2017-05-07T13:03:03.540Z,45.684
2017-05-07T13:05:58.449Z,45.252
2017-05-07T13:08:53.263Z,43.730
2017-05-07T13:11:48.128Z,44.576
2017-05-07T13:14:42.856Z,46.950
2017-05-07T13:17:37.654Z,46.216
2017-05-07T13:20:32.500Z,45.706
2017-05-07T13:23:27.281Z,49.938
2017-05-07T13:26:22.123Z,43.970
2017-05-07T13:29:17.235Z,46.673
2017-05-07T13:32:12.095Z,43.457
2017-05-07T13:35:06.986Z,44.653
2017-05-07T13:38:01.816Z,45.046
2017-05-07T13:40:56.647Z,46.065
2017-05-07T13:43:51.579Z,46.010
2017-05-07T13:46:46.336Z,46.286
2017-05-07T13:49:41.200Z,47.635
2017-05-07T13:52:36.102Z,47.125
2017-05-07T13:55:32.629Z,48.065
2017-05-07T13:58:25.854Z,47.581
2017-05-07T14:01:20.757Z,48.177
2017-05-07T14:04:15.639Z,49.076
2017-05-07T14:07:10.398Z,47.469
2017-05-07T14:10:05.309Z,48.049
2017-05-07T14:13:00.102Z,47.244
2017-05-07T14:15:55.032Z,48.439
2017-05-07T14:18:49.897Z,47.369
2017-05-07T14:21:44.703Z,47.536
2017-05-07T14:24:39.365Z,48.047
2017-05-07T14:27:34.144Z,46.912
2017-05-07T14:30:28.911Z,47.948
2017-05-07T14:33:23.881Z,44.900
2017-05-07T14:36:18.697Z,45.942
2017-05-07T14:39:13.651Z,42.486
2017-05-07T14:42:08.484Z,44.995
2017-05-07T14:45:03.473Z,42.250
2017-05-07T14:47:58.246Z,41.964
2017-05-07T14:50:53.301Z,44.344
2017-05-07T14:53:48.061Z,43.070
2017-05-07T14:56:42.954Z,42.639
2017-05-07T14:59:37.731Z,43.331
2017-05-07T15:02:32.794Z,43.592
2017-05-07T15:05:27.619Z,44.860
2017-05-07T15:08:22.562Z,43.544
2017-05-07T15:11:17.529Z,44.516
2017-05-07T15:14:12.367Z,43.851
2017-05-07T15:17:07.222Z,46.281
2017-05-07T15:20:02.100Z,44.820
2017-05-07T15:22:56.989Z,46.789
2017-05-07T15:25:51.891Z,47.755
2017-05-07T15:28:46.789Z,47.408
2017-05-07T15:31:41.580Z,47.813
2017-05-07T15:34:36.444Z,49.480
2017-05-07T15:37:31.310Z,50.035
2017-05-07T15:40:26.272Z,49.058
2017-05-07T15:43:21.147Z,50.680
2017-05-07T15:46:15.908Z,51.833
2017-05-07T15:49:10.861Z,50.658
2017-05-07T15:52:05.784Z,51.462
2017-05-07T15:55:00.539Z,51.832
2017-05-07T15:57:55.385Z,49.808
2017-05-07T16:00:52.089Z,51.888
2017-05-07T16:03:45.260Z,50.739
2017-05-07T16:06:40.054Z,52.314
2017-05-07T16:09:34.865Z,52.813
2017-05-07T16:12:29.712Z,51.248
2017-05-07T16:15:24.625Z,52.616
2017-05-07T16:18:19.494Z,50.863
2017-05-07T16:21:14.344Z,50.981
2017-05-07T16:24:09.195Z,50.833
2017-05-07T16:27:04.060Z,49.801
2017-05-07T16:29:58.966Z,50.837
2017-05-07T16:32:53.731Z,51.990
2017-05-07T16:35:48.621Z,50.944
2017-05-07T16:38:43.454Z,52.925
2017-05-07T16:41:38.240Z,51.513
2017-05-07T16:44:33.118Z,50.300
2017-05-07T16:47:27.879Z,51.828
2017-05-07T16:50:22.608Z,53.058
2017-05-07T16:53:17.352Z,51.982
2017-05-07T16:56:12.225Z,52.769
2017-05-07T16:59:07.077Z,53.879
2017-05-07T17:02:01.861Z,53.078
2017-05-07T17:04:56.766Z,53.140
2017-05-07T17:07:51.604Z,52.798
2017-05-07T17:10:46.339Z,52.559
2017-05-07T17:13:41.178Z,52.094
2017-05-07T17:16:35.995Z,52.642
2017-05-07T17:19:30.874Z,52.337
2017-05-07T17:22:25.715Z,52.826
2017-05-07T17:25:20.670Z,52.666
2017-05-07T17:28:15.434Z,53.886
2017-05-07T17:31:10.194Z,52.262
2017-05-07T17:34:05.189Z,54.839
2017-05-07T17:36:59.833Z,52.902
2017-05-07T17:39:54.508Z,54.280
2017-05-07T17:42:49.402Z,54.848
2017-05-07T17:45:44.101Z,55.276
2017-05-07T17:48:39.054Z,54.990
2017-05-07T17:51:33.851Z,54.340
2017-05-07T17:54:28.545Z,54.991
2017-05-07T17:57:23.170Z,55.425
2017-05-07T18:00:17.937Z,55.375
2017-05-07T18:03:12.762Z,55.379
2017-05-07T18:06:07.377Z,55.858
2017-05-07T18:09:02.228Z,56.900
2017-05-07T18:11:56.841Z,56.361
2017-05-07T18:14:51.595Z,55.812
2017-05-07T18:17:46.308Z,55.587
2017-05-07T18:20:41.054Z,56.307
2017-05-07T18:23:35.682Z,55.378
2017-05-07T18:26:30.439Z,55.109
2017-05-07T18:29:25.020Z,56.031
2017-05-07T18:32:19.621Z,55.420
2017-05-07T18:35:14.383Z,55.443
2017-05-07T18:38:09.066Z,54.612
2017-05-07T18:41:03.766Z,55.033
2017-05-07T18:43:58.382Z,56.208
2017-05-07T18:46:53.125Z,55.894
2017-05-07T18:49:47.838Z,56.208
2017-05-07T18:52:42.483Z,56.895
2017-05-07T18:55:37.028Z,56.535
2017-05-07T18:58:31.666Z,56.955
2017-05-07T19:01:26.293Z,57.154
2017-05-07T19:04:20.805Z,57.644
2017-05-07T19:07:15.421Z,56.599
2017-05-07T19:10:09.959Z,56.556
2017-05-07T19:13:04.463Z,54.395
2017-05-07T19:15:58.994Z,54.457
2017-05-07T19:18:53.788Z,54.521
2017-05-07T19:21:48.193Z,53.980
2017-05-07T19:24:42.700Z,53.434
2017-05-07T19:27:38.969Z,53.327
2017-05-07T19:30:31.741Z,53.569
2017-05-07T19:33:26.257Z,52.840
2017-05-07T19:36:20.803Z,53.673
2017-05-07T19:39:15.295Z,51.808
2017-05-07T19:42:09.799Z,52.286
2017-05-07T19:45:04.219Z,52.427
2017-05-07T19:47:58.782Z,52.855
2017-05-07T19:50:53.165Z,52.863
2017-05-07T19:53:47.514Z,51.844
2017-05-07T19:56:41.976Z,52.040
2017-05-07T19:59:36.392Z,51.930
2017-05-07T20:02:30.865Z,51.708
2017-05-07T20:05:25.276Z,52.477
2017-05-07T20:08:19.773Z,50.994
2017-05-07T20:11:14.333Z,51.719
2017-05-07T20:14:08.796Z,51.760
2017-05-07T20:17:03.381Z,50.361
2017-05-07T20:19:57.856Z,50.205
2017-05-07T20:22:52.376Z,50.658
2017-05-07T20:25:46.804Z,50.755
2017-05-07T20:28:41.331Z,51.008
2017-05-07T20:31:35.917Z,51.213
2017-05-07T20:34:30.404Z,50.799
2017-05-07T20:37:24.926Z,50.710
2017-05-07T20:40:19.397Z,50.163
2017-05-07T20:43:13.888Z,50.566
2017-05-07T20:46:08.390Z,50.870
2017-05-07T20:49:03.014Z,51.650
2017-05-07T20:51:57.609Z,51.387
2017-05-07T20:54:52.086Z,51.708
2017-05-07T20:57:46.555Z,51.034
2017-05-07T21:00:40.986Z,51.432
2017-05-07T21:03:35.494Z,51.433
2017-05-07T21:06:29.875Z,51.728
2017-05-07T21:09:24.429Z,51.928
2017-05-07T21:12:18.814Z,51.327
2017-05-07T21:15:13.249Z,51.509
2017-05-07T21:18:07.840Z,50.703
2017-05-07T21:21:04.128Z,50.907
2017-05-07T21:23:56.855Z,49.976
2017-05-07T21:26:51.352Z,51.021
2017-05-07T21:29:45.828Z,51.250
2017-05-07T21:32:40.394Z,50.236
2017-05-07T21:35:34.678Z,51.459
2017-05-07T21:38:29.136Z,50.906
2017-05-07T21:41:23.681Z,51.080
2017-05-07T21:44:18.102Z,51.776
2017-05-07T21:47:12.603Z,51.456
2017-05-07T21:50:06.977Z,51.527
2017-05-07T21:53:01.399Z,51.653
2017-05-07T21:55:55.877Z,51.869
2017-05-07T21:58:50.334Z,52.149
2017-05-07T22:01:44.879Z,51.536
2017-05-07T22:04:39.337Z,52.899
2017-05-07T22:07:33.773Z,52.027
2017-05-07T22:10:28.323Z,52.958
2017-05-07T22:13:22.710Z,52.210
2017-05-07T22:16:17.614Z,52.712
2017-05-07T22:19:12.102Z,51.964
2017-05-07T22:22:06.476Z,51.109
2017-05-07T22:25:00.905Z,52.794
2017-05-07T22:27:55.489Z,52.790
2017-05-07T22:30:50.030Z,52.263
2017-05-07T22:33:44.390Z,53.088
2017-05-07T22:36:38.869Z,53.069
2017-05-07T22:39:33.291Z,52.876
2017-05-07T22:42:27.775Z,52.750
2017-05-07T22:45:22.303Z,52.856
2017-05-07T22:48:16.778Z,53.500
2017-05-07T22:51:11.194Z,53.278
2017-05-07T22:54:07.708Z,52.455
2017-05-07T22:57:00.584Z,53.262
2017-05-07T22:59:55.134Z,53.290
2017-05-07T23:02:49.641Z,52.403
2017-05-07T23:05:44.125Z,52.545
2017-05-07T23:08:38.675Z,52.083
2017-05-07T23:11:33.205Z,52.285
2017-05-07T23:14:27.590Z,53.043
2017-05-07T23:17:23.866Z,52.056
2017-05-07T23:20:16.605Z,52.702
2017-05-07T23:23:11.117Z,52.479
2017-05-07T23:26:05.534Z,52.527
2017-05-07T23:29:01.680Z,52.429
2017-05-07T23:31:54.519Z,52.869
2017-05-07T23:34:48.997Z,53.491
2017-05-07T23:37:45.058Z,54.169
2017-05-07T23:40:37.765Z,53.541
2017-05-07T23:43:32.268Z,54.106
2017-05-07T23:46:26.795Z,53.800
2017-05-07T23:49:21.097Z,53.796
2017-05-07T23:52:15.458Z,53.835
2017-05-07T23:55:09.987Z,53.930
2017-05-07T23:58:04.391Z,54.569
